Time;durP1;ratioP1;P1;durP2;ratioP2;P2;SDS_P1;SDS_P2;PMS_P1;PMS_P2;Temp;Humidity;BMP_temperature;BMP_pressure;BME280_temperature;BME280_humidity;BME280_pressure;Samples;Min_cycle;Max_cycle;Signal;HPM_P1;HPM_P2
2022/05/02 00:00:53;;;;;;;15.78;12.70;;;;;;;4.97;68.74;101909.05;1665521;84;21234;-87
2022/05/02 00:03:23;;;;;;;23.02;13.03;;;;;;;4.96;68.77;101904.66;1632119;85;21086;-85
2022/05/02 00:05:49;;;;;;;25.17;14.07;;;;;;;4.97;68.80;101906.44;1676773;83;22011;-86
2022/05/02 00:08:16;;;;;;;23.07;14.75;;;;;;;4.98;68.69;101906.95;1676980;83;21094;-85
2022/05/02 00:10:43;;;;;;;25.30;14.30;;;;;;;4.97;68.52;101896.90;1671306;84;21090;-87
2022/05/02 00:13:10;;;;;;;26.62;14.95;;;;;;;4.98;68.48;101901.74;1671668;84;21189;-87
2022/05/02 00:15:38;;;;;;;25.20;14.95;;;;;;;4.98;68.44;101901.74;1662634;84;21611;-86
2022/05/02 00:18:05;;;;;;;23.32;14.58;;;;;;;4.97;68.37;101906.44;1667618;84;22138;-86
2022/05/02 00:20:35;;;;;;;23.47;14.85;;;;;;;4.96;68.39;101911.17;1659380;84;21185;-86
2022/05/02 00:23:06;;;;;;;22.67;14.53;;;;;;;4.98;68.41;101910.88;1682377;84;21872;-86
2022/05/02 00:25:33;;;;;;;26.80;14.93;;;;;;;4.96;68.33;101902.94;1674602;83;21012;-86
2022/05/02 00:27:59;;;;;;;29.30;15.25;;;;;;;4.94;68.30;101907.56;1677896;83;21085;-86
2022/05/02 00:30:26;;;;;;;25.95;15.95;;;;;;;4.92;68.27;101906.53;1662700;84;21832;-86
2022/05/02 00:32:54;;;;;;;31.12;16.75;;;;;;;4.85;68.27;101903.52;1657776;84;21122;-86
2022/05/02 00:35:22;;;;;;;26.87;16.70;;;;;;;4.80;68.31;101904.02;1660313;84;21369;-86
2022/05/02 00:37:49;;;;;;;30.55;16.40;;;;;;;4.72;68.35;101902.20;1661940;84;21150;-86
2022/05/02 00:40:21;;;;;;;27.52;16.80;;;;;;;4.65;68.38;101904.81;1669977;84;21196;-87
2022/05/02 00:42:46;;;;;;;29.70;16.85;;;;;;;4.62;68.44;101902.41;1643316;84;21910;-87
2022/05/02 00:45:15;;;;;;;26.70;17.32;;;;;;;4.57;68.42;101897.27;1665185;84;21599;-87
2022/05/02 00:47:50;;;;;;;31.52;17.70;;;;;;;4.52;68.44;101892.13;1663567;84;21153;-86
2022/05/02 00:50:19;;;;;;;26.77;17.05;;;;;;;4.47;68.47;101897.05;1674024;84;21078;-87
2022/05/02 00:52:49;;;;;;;29.98;17.37;;;;;;;4.43;68.58;101898.91;1660515;84;21221;-87
2022/05/02 00:55:15;;;;;;;30.97;18.65;;;;;;;4.40;68.61;101891.80;1660843;83;21618;-86
2022/05/02 00:57:42;;;;;;;29.02;17.70;;;;;;;4.39;68.66;101900.44;1662838;84;21102;-87
2022/05/02 01:00:10;;;;;;;31.45;19.17;;;;;;;4.35;68.79;101894.48;1676776;84;21225;-87
2022/05/02 01:02:36;;;;;;;28.65;19.20;;;;;;;4.30;68.78;101897.20;1666450;84;22024;-87
2022/05/02 01:05:04;;;;;;;28.83;18.50;;;;;;;4.26;68.89;101889.56;1666759;83;21121;-86
2022/05/02 01:07:31;;;;;;;35.60;18.92;;;;;;;4.22;68.93;101883.65;1664375;84;21794;-87
2022/05/02 01:09:58;;;;;;;32.10;18.62;;;;;;;4.20;69.03;101887.81;1662826;84;21970;-87
2022/05/02 01:12:25;;;;;;;33.10;19.23;;;;;;;4.18;69.15;101882.01;1658682;84;21097;-86
2022/05/02 01:14:55;;;;;;;33.53;19.05;;;;;;;4.14;69.25;101881.30;1657565;84;21065;-86
2022/05/02 01:17:21;;;;;;;29.70;18.40;;;;;;;4.11;69.35;101887.59;1651977;84;21684;-86
2022/05/02 01:19:51;;;;;;;29.23;18.15;;;;;;;4.06;69.47;101890.78;1625098;86;21815;-86
2022/05/02 01:22:18;;;;;;;30.65;17.75;;;;;;;4.02;69.55;101883.56;1643030;85;21115;-86
2022/05/02 01:24:47;;;;;;;34.50;18.67;;;;;;;3.99;69.61;101879.42;1640252;85;21099;-85
2022/05/02 01:27:14;;;;;;;31.80;17.90;;;;;;;3.98;69.73;101885.83;1626205;87;21193;-86
2022/05/02 01:29:45;;;;;;;28.57;17.82;;;;;;;3.94;69.78;101879.53;1664759;84;21053;-87
2022/05/02 01:32:15;;;;;;;32.10;18.07;;;;;;;3.93;69.90;101884.63;1670142;84;21911;-86
2022/05/02 01:34:44;;;;;;;30.48;17.02;;;;;;;3.90;69.97;101886.59;1653931;84;21108;-87
2022/05/02 01:37:12;;;;;;;29.90;15.90;;;;;;;3.86;70.03;101879.38;1645979;85;21206;-86
2022/05/02 01:39:40;;;;;;;28.00;17.30;;;;;;;3.85;70.09;101884.09;1645486;84;21551;-86
2022/05/02 01:42:09;;;;;;;25.52;16.97;;;;;;;3.86;70.09;101883.28;1657165;84;21175;-88
2022/05/02 01:44:36;;;;;;;23.75;15.63;;;;;;;3.84;70.22;101877.95;1660656;84;22621;-86
2022/05/02 01:47:04;;;;;;;29.27;17.67;;;;;;;3.86;70.24;101885.88;1649992;85;22053;-87
2022/05/02 01:49:35;;;;;;;28.65;17.00;;;;;;;3.85;70.32;101881.08;1653474;85;21506;-87
2022/05/02 01:51:59;;;;;;;29.77;17.27;;;;;;;3.84;70.31;101880.56;1614167;86;21027;-87
2022/05/02 01:54:28;;;;;;;28.70;17.67;;;;;;;3.84;70.35;101873.16;1609762;86;20943;-87
2022/05/02 01:57:00;;;;;;;29.57;16.10;;;;;;;3.84;70.46;101875.76;1594411;85;21783;-87
2022/05/02 01:59:26;;;;;;;31.00;16.02;;;;;;;3.81;70.57;101879.06;1663004;83;21126;-87
2022/05/02 02:01:53;;;;;;;30.80;16.48;;;;;;;3.79;70.61;101873.22;1665623;85;21542;-87
2022/05/02 02:07:06;;;;;;;28.38;16.90;;;;;;;3.76;70.75;101870.42;1644674;85;21315;-87
2022/05/02 02:09:33;;;;;;;27.65;17.23;;;;;;;3.77;70.84;101878.72;1665042;84;21868;-86
2022/05/02 02:11:59;;;;;;;25.80;16.07;;;;;;;3.77;70.82;101874.81;1659332;84;21094;-86
2022/05/02 02:14:26;;;;;;;26.27;15.53;;;;;;;3.77;70.91;101868.30;1664150;84;21082;-86
2022/05/02 02:16:53;;;;;;;23.85;14.80;;;;;;;3.76;70.90;101866.52;1659458;84;21692;-86
2022/05/02 02:19:20;;;;;;;28.42;15.85;;;;;;;3.77;70.98;101865.30;1660127;84;21073;-86
2022/05/02 02:21:46;;;;;;;30.00;15.18;;;;;;;3.77;70.97;101864.40;1662187;84;21587;-86
2022/05/02 02:24:13;;;;;;;32.17;15.15;;;;;;;3.77;71.05;101865.70;1662560;84;21072;-85
2022/05/02 02:26:40;;;;;;;21.73;14.03;;;;;;;3.77;71.18;101864.40;1658007;84;21108;-86
2022/05/02 02:29:07;;;;;;;23.60;14.55;;;;;;;3.75;71.23;101866.89;1642897;85;21129;-86
2022/05/02 02:31:36;;;;;;;25.15;13.65;;;;;;;3.75;71.28;101860.78;1663711;84;21079;-87
2022/05/02 02:34:02;;;;;;;22.48;14.30;;;;;;;3.75;71.35;101858.18;1622413;86;21809;-86
2022/05/02 02:36:32;;;;;;;31.75;13.88;;;;;;;3.75;71.39;101860.78;1621269;86;21115;-87
2022/05/02 02:38:59;;;;;;;20.37;13.90;;;;;;;3.75;71.40;101857.77;1659339;85;21656;-86
2022/05/02 02:41:25;;;;;;;23.32;13.30;;;;;;;3.76;71.47;101860.00;1620577;87;21295;-85
2022/05/02 02:43:54;;;;;;;19.65;12.65;;;;;;;3.77;71.54;101861.80;1614274;86;21163;-86
2022/05/02 02:46:21;;;;;;;21.00;14.33;;;;;;;3.76;71.58;101863.50;1632870;86;22240;-85
2022/05/02 02:48:48;;;;;;;25.90;14.00;;;;;;;3.75;71.72;101862.09;1655115;85;21128;-86
2022/05/02 02:51:15;;;;;;;24.02;14.38;;;;;;;3.73;71.80;101859.77;1602626;87;21103;-85
2022/05/02 02:53:42;;;;;;;21.25;13.78;;;;;;;3.72;71.82;101860.55;1652677;84;21153;-85
2022/05/02 02:56:08;;;;;;;28.52;15.48;;;;;;;3.68;71.81;101854.26;1615107;86;21119;-85
2022/05/02 02:58:37;;;;;;;24.85;15.20;;;;;;;3.66;71.90;101864.56;1608653;87;21362;-85
2022/05/02 03:01:04;;;;;;;21.57;13.88;;;;;;;3.66;71.94;101858.05;1654915;84;21521;-85
2022/05/02 03:03:31;;;;;;;27.60;15.13;;;;;;;3.66;72.02;101864.56;1625967;86;21115;-85
2022/05/02 03:06:03;;;;;;;22.55;14.53;;;;;;;3.64;72.11;101866.16;1593958;87;21098;-85
2022/05/02 03:08:44;;;;;;;25.77;14.93;;;;;;;3.64;72.13;101869.12;1611241;86;21174;-86
2022/05/02 03:11:11;;;;;;;24.25;15.00;;;;;;;3.64;72.21;101869.12;1652715;85;21816;-86
2022/05/02 03:13:38;;;;;;;28.87;15.58;;;;;;;3.64;72.27;101873.97;1611489;87;21098;-86
2022/05/02 03:16:05;;;;;;;29.00;15.70;;;;;;;3.65;72.31;101870.55;1664402;84;21098;-85
2022/05/02 03:18:34;;;;;;;30.52;15.05;;;;;;;3.62;72.37;101861.61;1657817;84;21161;-86
2022/05/02 03:21:01;;;;;;;26.00;15.90;;;;;;;3.69;72.33;101866.47;1677236;84;21080;-86
2022/05/02 03:23:27;;;;;;;22.60;15.58;;;;;;;3.72;72.36;101870.59;1680599;83;21737;-86
2022/05/02 03:25:54;;;;;;;28.65;16.42;;;;;;;3.76;72.38;101870.42;1692136;83;21688;-86
2022/05/02 03:28:23;;;;;;;25.82;14.70;;;;;;;3.79;72.42;101864.10;1669361;84;21106;-86
2022/05/02 03:30:50;;;;;;;24.07;15.20;;;;;;;3.84;72.39;101867.94;1675789;83;21093;-85
2022/05/02 03:33:16;;;;;;;24.10;15.45;;;;;;;3.89;72.40;101861.36;1660613;84;21078;-86
2022/05/02 03:35:44;;;;;;;25.08;16.02;;;;;;;4.21;73.23;101866.19;1655900;84;23368;-85
2022/05/02 03:38:21;;;;;;;21.68;14.78;;;;;;;4.91;73.53;101859.08;1660543;84;21376;-85
2022/05/02 03:40:48;;;;;;;24.07;14.87;;;;;;;5.78;73.43;101846.77;1669955;83;21153;-85
2022/05/02 03:43:15;;;;;;;32.80;15.18;;;;;;;6.64;72.41;101851.97;1666749;83;21149;-85
2022/05/02 03:45:42;;;;;;;20.52;13.70;;;;;;;7.36;71.39;101848.25;1673232;83;21647;-85
2022/05/02 03:48:09;;;;;;;22.85;14.58;;;;;;;8.02;70.50;101849.61;1676587;83;21884;-85
2022/05/02 03:50:35;;;;;;;20.05;13.70;;;;;;;8.71;69.62;101845.33;1678763;83;21597;-85
2022/05/02 03:53:04;;;;;;;23.70;14.35;;;;;;;9.37;68.77;101842.39;1656402;84;21650;-86
2022/05/02 03:55:33;;;;;;;22.82;13.98;;;;;;;10.08;67.89;101838.64;1659642;83;21500;-85
2022/05/02 03:58:02;;;;;;;23.62;14.45;;;;;;;10.87;67.21;101844.23;1611888;86;21711;-86
2022/05/02 04:00:28;;;;;;;24.55;15.83;;;;;;;11.65;66.15;101840.25;1653167;84;22139;-85
2022/05/02 04:02:57;;;;;;;22.25;14.60;;;;;;;12.42;64.89;101833.84;1641750;84;21205;-87
2022/05/02 04:05:23;;;;;;;23.02;14.60;;;;;;;13.30;63.96;101831.05;1664776;84;21176;-86
2022/05/02 04:07:50;;;;;;;17.75;12.88;;;;;;;14.11;62.88;101829.88;1663598;84;21161;-86
2022/05/02 04:10:22;;;;;;;21.82;12.18;;;;;;;14.94;61.12;101831.17;1664946;84;21101;-87
2022/05/02 04:12:50;;;;;;;17.57;11.85;;;;;;;15.47;59.14;101826.23;1642709;84;21109;-86
2022/05/02 04:15:18;;;;;;;17.12;12.45;;;;;;;15.77;57.88;101830.45;1659634;84;21150;-85
2022/05/02 04:17:45;;;;;;;17.32;11.40;;;;;;;16.33;57.00;101827.13;1654312;84;21078;-85
2022/05/02 04:20:12;;;;;;;18.45;12.30;;;;;;;16.78;56.16;101823.48;1649550;85;21097;-86
2022/05/02 04:22:38;;;;;;;16.50;10.98;;;;;;;17.48;55.25;101814.81;1676655;83;21082;-86
2022/05/02 04:25:06;;;;;;;15.85;10.82;;;;;;;18.13;54.32;101817.87;1640699;84;22654;-86
2022/05/02 04:27:33;;;;;;;18.07;11.65;;;;;;;18.87;53.71;101824.36;1667588;83;21274;-88
2022/05/02 04:30:12;;;;;;;17.15;11.70;;;;;;;19.60;52.44;101819.92;1654820;83;21213;-89
2022/05/02 04:32:37;;;;;;;15.03;10.93;;;;;;;20.26;51.04;101820.17;1656482;84;21118;-89
2022/05/02 04:35:10;;;;;;;14.15;10.53;;;;;;;20.85;50.29;101815.77;1634342;86;21137;-89
2022/05/02 04:37:35;;;;;;;14.90;10.60;;;;;;;21.39;48.73;101816.15;1621931;86;23239;-88
2022/05/02 04:40:04;;;;;;;16.45;11.00;;;;;;;21.66;47.46;101813.41;1625155;86;21120;-88
2022/05/02 04:42:33;;;;;;;17.10;10.95;;;;;;;22.09;46.77;101818.56;1666946;83;21147;-88
2022/05/02 04:45:00;;;;;;;15.85;10.90;;;;;;;22.61;45.73;101815.11;1659024;84;21580;-88
2022/05/02 04:47:29;;;;;;;15.43;11.03;;;;;;;23.08;44.95;101813.36;1662004;83;22348;-88
2022/05/02 04:49:59;;;;;;;14.73;10.35;;;;;;;23.96;43.50;101819.08;1662390;83;21816;-89
2022/05/02 04:52:27;;;;;;;16.40;10.63;;;;;;;23.96;43.50;101819.08;1662137;83;21575;-88
2022/05/02 04:54:56;;;;;;;14.98;10.72;;;;;;;24.22;42.26;101821.41;1662291;84;21200;-89
2022/05/02 04:57:22;;;;;;;13.95;10.23;;;;;;;24.49;41.51;101821.88;1662875;84;21125;-88
2022/05/02 04:59:49;;;;;;;20.15;9.83;;;;;;;24.79;40.71;101820.98;1608653;86;21201;-89
2022/05/02 05:02:16;;;;;;;15.90;9.98;;;;;;;25.06;40.01;101822.75;1593001;88;21579;-89
2022/05/02 05:04:43;;;;;;;12.55;9.93;;;;;;;25.40;39.36;101823.93;1659039;84;21100;-89
2022/05/02 05:07:14;;;;;;;15.28;10.10;;;;;;;25.77;38.96;101819.14;1666725;83;21097;-89
2022/05/02 05:09:42;;;;;;;15.00;9.88;;;;;;;26.01;38.03;101826.75;1662397;83;21105;-88
2022/05/02 05:13:06;;;;;;;16.17;10.48;;;;;;;26.04;37.17;101825.34;1632185;86;21714;-87
2022/05/02 05:16:24;;;;;;;14.43;10.40;;;;;;;26.26;36.97;101827.06;1645475;84;21834;-88
2022/05/02 05:18:59;;;;;;;13.48;10.08;;;;;;;26.74;36.59;101824.14;1644586;85;21071;-88
2022/05/02 05:21:49;;;;;;;13.88;11.48;;;;;;;27.31;35.95;101824.00;1643327;84;21150;-88
2022/05/02 05:24:58;;;;;;;13.68;10.43;;;;;;;27.62;35.38;101823.14;1619469;85;21426;-88
2022/05/02 05:28:05;;;;;;;18.00;10.25;;;;;;;27.87;34.82;101820.58;1627857;85;21173;-88
2022/05/02 05:30:38;;;;;;;14.43;10.58;;;;;;;27.01;33.59;101817.58;1643645;84;21813;-88
2022/05/02 05:33:32;;;;;;;12.88;9.70;;;;;;;25.02;32.87;101814.75;1646817;84;21090;-88
2022/05/02 05:36:30;;;;;;;14.87;10.48;;;;;;;23.21;33.20;101823.53;1664447;85;21140;-88
2022/05/02 05:39:06;;;;;;;15.70;9.95;;;;;;;21.45;33.94;101818.38;1650024;85;21134;-89
2022/05/02 05:41:58;;;;;;;14.90;9.80;;;;;;;19.95;34.87;101825.87;1650978;85;21757;-85
2022/05/02 05:44:51;;;;;;;13.18;10.25;;;;;;;18.83;35.69;101830.11;1637501;85;21955;-85
2022/05/02 05:47:44;;;;;;;13.22;9.13;;;;;;;17.82;36.88;101828.11;1603524;85;22194;-86
2022/05/02 05:50:31;;;;;;;12.85;9.18;;;;;;;17.00;37.58;101829.17;1610382;86;21029;-85
2022/05/02 05:53:24;;;;;;;18.48;9.40;;;;;;;16.13;38.48;101828.95;1607901;85;21197;-85
2022/05/02 05:56:20;;;;;;;15.68;9.60;;;;;;;15.39;39.05;101823.86;1639609;85;21174;-85
2022/05/02 05:58:53;;;;;;;16.95;9.53;;;;;;;14.70;39.98;101828.41;1603505;84;21797;-85
2022/05/02 06:01:51;;;;;;;18.40;10.58;;;;;;;14.09;40.88;101831.59;1643101;83;21091;-85
2022/05/02 06:04:19;;;;;;;12.80;9.33;;;;;;;13.72;41.50;101825.67;1643461;85;21042;-84
2022/05/02 06:06:48;;;;;;;16.15;10.55;;;;;;;13.39;42.18;101831.77;1625148;85;21322;-84
2022/05/02 06:09:27;;;;;;;16.20;9.75;;;;;;;13.12;42.73;101832.67;1605360;85;21702;-84
2022/05/02 06:11:59;;;;;;;22.37;11.20;;;;;;;12.88;43.31;101831.45;1629677;85;21808;-84
2022/05/02 06:14:31;;;;;;;17.00;10.82;;;;;;;12.74;43.80;101828.33;1648517;85;21473;-85
2022/05/02 06:19:45;;;;;;;17.90;11.75;;;;;;;12.44;44.59;101827.79;1631750;85;21307;-85
2022/05/02 06:22:11;;;;;;;13.93;9.73;;;;;;;12.33;45.05;101827.84;1644973;84;21197;-85
2022/05/02 06:24:55;;;;;;;13.70;9.33;;;;;;;12.19;45.14;101830.40;1668151;83;22654;-86
2022/05/02 06:27:32;;;;;;;14.33;8.75;;;;;;;12.04;45.52;101829.42;1648778;84;21027;-85
2022/05/02 06:30:05;;;;;;;10.78;8.73;;;;;;;11.93;45.94;101834.73;1660798;84;21493;-85
2022/05/02 06:32:32;;;;;;;12.43;8.05;;;;;;;11.84;46.04;101834.84;1658631;84;21182;-83
2022/05/02 06:38:56;;;;;;;15.88;8.93;;;;;;;11.59;46.43;101834.75;1591040;87;21176;-95
2022/05/02 06:48:37;;;;;;;18.55;8.95;;;;;;;11.45;47.40;101831.60;1603096;85;21173;-87
2022/05/02 06:51:15;;;;;;;16.00;8.28;;;;;;;11.24;47.62;101819.77;1642960;85;21586;-86
2022/05/02 06:54:13;;;;;;;16.12;8.05;;;;;;;11.36;48.15;101833.87;1671301;84;21601;-85
2022/05/02 06:56:45;;;;;;;14.60;8.03;;;;;;;11.35;48.22;101836.91;1618235;86;21301;-85
2022/05/02 06:59:31;;;;;;;12.43;8.25;;;;;;;11.35;48.25;101841.29;1659999;84;21153;-85
2022/05/02 07:02:01;;;;;;;14.45;8.23;;;;;;;11.28;48.35;101838.42;1647678;84;21205;-86
2022/05/02 07:04:52;;;;;;;15.65;8.20;;;;;;;11.26;48.55;101837.86;1630142;84;22251;-85
2022/05/02 07:07:47;;;;;;;12.75;8.98;;;;;;;11.24;48.84;101836.91;1659047;83;21232;-87
2022/05/02 07:10:24;;;;;;;13.75;8.53;;;;;;;11.23;49.29;101836.02;1618320;84;21145;-85
2022/05/02 07:13:29;;;;;;;14.30;8.88;;;;;;;11.21;49.25;101839.44;1654111;84;22188;-95
2022/05/02 07:16:22;;;;;;;18.75;9.83;;;;;;;11.26;49.73;101834.83;1636257;84;21148;-96
2022/05/02 07:26:33;;;;;;;10.58;7.22;;;;;;;11.49;50.06;101834.83;1562935;89;21861;-86
2022/05/02 07:32:13;;;;;;;16.80;8.65;;;;;;;11.40;49.61;101834.04;1538124;88;21854;-85
2022/05/02 07:34:46;;;;;;;17.60;8.68;;;;;;;11.40;50.20;101832.72;1592738;87;21153;-86
2022/05/02 07:37:15;;;;;;;14.18;8.15;;;;;;;11.48;50.53;101829.06;1612970;85;27702;-86
2022/05/02 07:39:53;;;;;;;16.17;9.33;;;;;;;11.55;50.71;101832.84;1628787;85;21655;-87
2022/05/02 07:42:37;;;;;;;10.75;8.23;;;;;;;11.52;50.75;101830.08;1642269;84;21172;-85
2022/05/02 07:44:59;;;;;;;11.03;8.05;;;;;;;11.50;50.96;101831.77;1603949;84;22406;-86
2022/05/02 07:47:33;;;;;;;11.70;8.58;;;;;;;11.51;51.10;101829.62;1602453;84;21030;-87
2022/05/02 07:52:52;;;;;;;11.48;7.95;;;;;;;11.63;51.76;101827.44;1573071;89;21168;-90
2022/05/02 07:55:42;;;;;;;14.78;8.83;;;;;;;11.58;51.90;101805.25;1589944;87;21581;-85
2022/05/02 07:59:07;;;;;;;;;;;;;;;;;;;;;
2022/05/02 08:02:06;;;;;;;14.13;8.15;;;;;;;11.81;51.99;101820.21;1493019;92;22177;-88
2022/05/02 08:04:44;;;;;;;11.93;7.37;;;;;;;11.73;52.03;101797.94;1505175;90;23401;-85
2022/05/02 08:07:51;;;;;;;12.93;7.15;;;;;;;11.94;52.13;101818.96;1578578;84;21468;-85
2022/05/02 08:11:15;;;;;;;9.73;6.55;;;;;;;11.90;51.83;101809.14;1625175;84;22433;-85
2022/05/02 08:14:13;;;;;;;10.88;7.10;;;;;;;11.85;51.74;101814.63;1590232;87;21159;-85
2022/05/02 08:17:04;;;;;;;9.15;5.92;;;;;;;11.81;51.68;101807.02;1639293;84;21191;-85
2022/05/02 08:19:57;;;;;;;15.43;6.58;;;;;;;11.83;51.42;101811.05;1639272;84;21998;-85
2022/05/02 08:29:02;;;;;;;7.47;5.33;;;;;;;12.16;51.22;101794.64;1645809;83;21110;-84
2022/05/02 08:31:51;;;;;;;7.42;4.83;;;;;;;12.24;50.92;101798.05;1631219;83;21056;-85
2022/05/02 08:34:33;;;;;;;8.18;4.53;;;;;;;12.33;50.68;101797.88;1679393;83;21819;-85
2022/05/02 08:37:13;;;;;;;6.72;3.77;;;;;;;12.40;50.26;101802.53;1661694;83;21189;-85
2022/05/02 08:40:24;;;;;;;8.93;4.72;;;;;;;12.48;49.71;101800.14;1651585;83;22171;-85
2022/05/02 08:43:20;;;;;;;7.37;4.12;;;;;;;12.53;49.45;101783.61;1560042;89;21153;-85
2022/05/02 08:46:53;;;;;;;6.67;3.55;;;;;;;12.54;49.07;101792.45;1554796;89;21626;-84
2022/05/02 08:50:18;;;;;;;4.87;2.83;;;;;;;12.53;48.42;101788.00;1650076;84;21802;-84
2022/05/02 08:53:42;;;;;;;7.33;4.30;;;;;;;12.50;47.50;101786.17;1675403;83;21246;-86
2022/05/02 08:57:07;;;;;;;5.30;4.10;;;;;;;12.62;48.42;101779.06;1637720;84;21219;-86
2022/05/02 09:03:58;;;;;;;;;;;;;;;;;;;;;
2022/05/02 09:06:57;;;;;;;9.90;4.22;;;;;;;12.99;48.38;101763.09;1639699;84;21029;-85
2022/05/02 09:10:01;;;;;;;5.20;3.22;;;;;;;13.25;48.35;101763.89;1653564;83;21770;-85
2022/05/02 09:16:14;;;;;;;4.62;3.72;;;;;;;13.70;47.42;101748.92;1625363;84;21204;-85
2022/05/02 09:19:10;;;;;;;5.97;3.50;;;;;;;13.85;46.75;101755.08;1622288;83;21557;-85
2022/05/02 09:22:29;;;;;;;6.62;3.33;;;;;;;13.96;46.52;101750.05;1654041;83;21097;-85
2022/05/02 09:24:58;;;;;;;4.85;3.50;;;;;;;14.07;46.26;101749.02;1632846;83;21678;-86
2022/05/02 09:28:01;;;;;;;7.72;4.65;;;;;;;14.28;45.92;101748.69;1613143;85;21205;-85
2022/05/02 09:31:05;;;;;;;9.33;4.62;;;;;;;14.38;46.04;101742.34;1658556;83;21104;-85
2022/05/02 09:40:52;;;;;;;4.45;3.45;;;;;;;14.73;45.70;101737.06;1595348;85;21326;-85
2022/05/02 09:51:08;;;;;;;3.30;3.00;;;;;;;14.43;45.03;101717.28;1609662;86;21656;-85
2022/05/02 09:57:53;;;;;;;3.65;2.72;;;;;;;14.28;44.46;101715.14;1668221;83;20975;-84
2022/05/02 10:01:07;;;;;;;5.30;3.65;;;;;;;14.36;44.41;101708.30;1667665;83;21687;-86
2022/05/02 10:04:21;;;;;;;4.83;3.00;;;;;;;14.39;43.90;101684.96;1620094;84;21244;-89
2022/05/02 10:07:13;;;;;;;6.05;3.27;;;;;;;14.54;43.74;101701.22;1673109;84;21246;-93
2022/05/02 10:10:05;;;;;;;8.98;3.58;;;;;;;14.63;43.51;101695.72;1674631;83;21808;-86
2022/05/02 10:13:25;;;;;;;6.05;3.30;;;;;;;14.53;43.49;101691.94;1617458;83;21220;-85
2022/05/02 10:16:49;;;;;;;4.58;2.72;;;;;;;14.45;43.37;101693.08;1579952;88;21164;-84
2022/05/02 10:19:54;;;;;;;4.72;3.20;;;;;;;14.42;43.40;101687.69;1567096;87;21452;-85
2022/05/02 10:23:31;;;;;;;3.10;2.55;;;;;;;14.39;43.12;101688.50;1591008;87;21073;-85
2022/05/02 10:26:31;;;;;;;3.93;2.90;;;;;;;14.37;42.96;101682.70;1588995;87;21746;-85
2022/05/02 10:29:36;;;;;;;6.22;3.10;;;;;;;14.45;42.81;101670.97;1574664;88;21597;-85
2022/05/02 10:32:24;;;;;;;4.10;2.90;;;;;;;14.52;42.82;101667.17;1569575;88;21108;-85
2022/05/02 10:35:01;;;;;;;5.10;3.08;;;;;;;14.60;42.81;101667.37;1557792;88;21683;-85
2022/05/02 10:37:40;;;;;;;5.55;2.90;;;;;;;14.59;42.55;101656.34;1569595;88;21182;-84
2022/05/02 10:40:16;;;;;;;5.80;3.02;;;;;;;14.52;42.39;101649.95;1590883;87;22695;-85
2022/05/02 10:46:27;;;;;;;6.47;2.75;;;;;;;14.51;42.26;101641.55;1496496;93;21234;-84
2022/05/02 10:49:20;;;;;;;4.67;2.87;;;;;;;14.51;42.29;101638.02;1523798;91;21261;-84
2022/05/02 10:52:30;;;;;;;4.22;2.40;;;;;;;14.52;42.36;101635.82;1501193;91;21078;-85
2022/05/02 10:55:08;;;;;;;6.75;2.92;;;;;;;14.52;42.18;101639.80;1574856;88;22025;-85
2022/05/02 10:57:43;;;;;;;3.83;2.52;;;;;;;14.48;42.04;101640.15;1494119;93;21201;-85
2022/05/02 11:00:21;;;;;;;3.67;2.47;;;;;;;14.50;42.03;101633.56;1490555;93;21167;-85
2022/05/02 11:03:20;;;;;;;5.67;3.30;;;;;;;14.48;41.93;101628.67;1493698;93;21714;-85
2022/05/02 11:06:09;;;;;;;;;;;;;;;14.45;41.92;101621.55;1488023;93;21091;-85
2022/05/02 11:09:06;;;;;;;4.92;3.20;;;;;;;14.46;41.94;101623.77;1449856;95;20878;-86
2022/05/02 11:11:58;;;;;;;3.85;2.58;;;;;;;14.50;41.97;101617.23;1493609;93;21756;-85
2022/05/02 11:15:05;;;;;;;4.28;2.98;;;;;;;14.50;41.87;101608.41;1473450;94;21078;-84
2022/05/02 11:18:13;;;;;;;6.15;2.70;;;;;;;14.48;41.83;101607.47;1510112;92;21226;-84
2022/05/02 11:20:56;;;;;;;4.58;3.27;;;;;;;14.48;41.82;101600.41;1479174;94;21240;-85
2022/05/02 11:23:47;;;;;;;6.12;3.42;;;;;;;14.56;41.98;101597.52;1520216;93;22088;-84
2022/05/02 11:26:37;;;;;;;4.45;3.17;;;;;;;14.66;42.17;101584.08;1494179;93;21202;-87
2022/05/02 11:29:39;;;;;;;6.70;4.17;;;;;;;14.72;42.04;101586.84;1484889;93;21647;-84
2022/05/02 11:32:12;;;;;;;6.30;3.10;;;;;;;14.74;42.02;101586.45;1480559;94;21235;-85
2022/05/02 11:35:06;;;;;;;4.45;2.87;;;;;;;14.83;41.96;101582.19;1495856;92;21201;-84
2022/05/02 11:37:54;;;;;;;8.03;3.83;;;;;;;14.92;41.90;101578.41;1541158;87;22104;-85
2022/05/02 11:40:35;;;;;;;5.40;3.02;;;;;;;14.93;41.68;101558.56;1601583;84;22232;-84
2022/05/02 11:43:16;;;;;;;9.00;4.37;;;;;;;15.08;41.60;101571.67;1644899;83;21214;-85
2022/05/02 11:46:01;;;;;;;5.37;3.40;;;;;;;15.27;41.69;101563.19;1640711;84;21168;-86
2022/05/02 11:49:18;;;;;;;4.10;2.80;;;;;;;15.40;41.46;101560.78;1652149;83;21665;-85
2022/05/02 11:54:50;;;;;;;5.22;3.27;;;;;;;15.57;41.42;101557.98;1658905;84;21161;-86
2022/05/02 11:57:57;;;;;;;;;;;;;;;;;;;;;
2022/05/02 12:00:28;;;;;;;4.72;3.45;;;;;;;15.44;41.06;101548.02;1633916;84;21079;-86
2022/05/02 12:03:12;;;;;;;5.45;3.55;;;;;;;15.47;41.22;101546.32;1628092;84;21201;-85
2022/05/02 12:05:44;;;;;;;8.40;4.27;;;;;;;15.47;41.19;101544.11;1620835;85;22838;-85
2022/05/02 12:08:25;;;;;;;4.35;3.77;;;;;;;15.47;41.23;101541.45;1634649;83;21157;-85
2022/05/02 12:11:05;;;;;;;6.72;3.70;;;;;;;15.47;41.13;101534.38;1633818;84;21147;-85
2022/05/02 12:13:40;;;;;;;4.25;3.08;;;;;;;15.50;41.06;101533.53;1650491;84;21158;-84
2022/05/02 12:16:12;;;;;;;5.65;3.00;;;;;;;15.66;41.03;101528.06;1635087;85;21243;-86
2022/05/02 12:18:53;;;;;;;6.42;3.05;;;;;;;15.91;41.01;101521.41;1641932;84;21793;-84
2022/05/02 12:21:31;;;;;;;5.83;3.52;;;;;;;16.20;40.92;101516.53;1646475;85;21105;-84
2022/05/02 12:24:01;;;;;;;6.50;4.20;;;;;;;16.44;40.47;101515.06;1638676;84;21101;-84
2022/05/02 12:26:28;;;;;;;6.30;3.12;;;;;;;16.46;40.14;101517.30;1641960;85;21140;-84
2022/05/02 12:28:58;;;;;;;4.60;2.87;;;;;;;16.45;40.14;101503.58;1614071;85;21096;-84
2022/05/02 12:31:27;;;;;;;4.58;3.00;;;;;;;16.47;40.03;101500.50;1663176;84;22703;-85
2022/05/02 12:34:04;;;;;;;7.03;3.22;;;;;;;16.46;39.91;101496.96;1648672;84;21213;-83
2022/05/02 12:36:48;;;;;;;7.03;3.25;;;;;;;16.36;39.67;101485.74;1633225;84;21138;-84
2022/05/02 12:39:21;;;;;;;4.72;2.87;;;;;;;16.23;39.73;101483.80;1645657;84;21439;-83
2022/05/02 12:41:52;;;;;;;7.28;3.10;;;;;;;16.21;39.85;101484.22;1674946;83;21221;-83
2022/05/02 12:44:32;;;;;;;5.50;3.45;;;;;;;16.19;39.93;101472.68;1668810;83;21840;-84
2022/05/02 12:47:26;;;;;;;4.42;3.02;;;;;;;16.15;39.81;101476.17;1646477;84;21780;-86
2022/05/02 12:50:20;;;;;;;;;;;;;;;;;;;;;
2022/05/02 12:53:15;;;;;;;4.95;2.50;;;;;;;16.05;39.86;101458.78;1610864;85;21093;-84
2022/05/02 12:55:38;;;;;;;5.08;3.33;;;;;;;16.08;40.08;101461.91;1553248;89;21614;-85
2022/05/02 13:01:08;;;;;;;8.43;5.40;;;;;;;16.08;39.69;101448.62;1550323;90;21200;-84
2022/05/02 13:03:47;;;;;;;12.53;6.53;;;;;;;16.01;39.59;101446.34;1515745;91;21398;-85
2022/05/02 13:06:15;;;;;;;4.65;3.25;;;;;;;15.96;39.82;101438.73;1546059;90;21165;-85
2022/05/02 13:09:14;;;;;;;7.25;3.20;;;;;;;15.98;39.64;101437.44;1544816;88;21134;-84
2022/05/02 13:11:47;;;;;;;3.67;2.75;;;;;;;15.89;39.41;101435.53;1580426;88;21164;-85
2022/05/02 13:14:41;;;;;;;5.58;3.20;;;;;;;15.84;39.45;101422.63;1523996;89;22718;-83
2022/05/02 13:17:15;;;;;;;;;;;;;;;15.83;39.72;101424.84;1533455;91;21819;-83
2022/05/02 13:19:47;;;;;;;4.28;3.20;;;;;;;15.89;39.94;101416.95;1590291;88;21135;-84
2022/05/02 13:22:23;;;;;;;10.45;3.27;;;;;;;15.90;39.80;101416.98;1568261;88;21838;-85
2022/05/02 13:25:01;;;;;;;3.83;2.58;;;;;;;15.90;39.71;101411.67;1576095;88;21164;-85
2022/05/02 13:27:55;;;;;;;4.58;3.10;;;;;;;15.83;39.50;101404.48;1590232;88;21286;-84
2022/05/02 13:30:21;;;;;;;11.10;5.80;;;;;;;15.78;39.63;101405.29;1586360;88;21166;-84